Aviation Digital Data Service (ADDS)

Output produced by METARs form (0301 UTC 21 January 2018)
found at http://www.aviationweather.gov/adds/metars/
 
KCXY 210256Z AUTO 00000KT 9SM CLR 00/M02 A3007 RMK AO2 SLP187 T00001017 51013
KCXY 210156Z 24003KT 9SM CLR 01/M01 A3006 RMK AO2 SLP186 T00111011
KCXY 210056Z 00000KT 10SM CLR 02/M01 A3005 RMK AO2 SLP181 T00221011
KCXY 202356Z 22003KT 10SM CLR 03/M01 A3003 RMK AO2 SLP175 T00281006 10111 20028 53023
KCXY 202256Z 00000KT 10SM CLR 05/00 A3001 RMK AO2 SLP165 T00500000
KCXY 202156Z 25003KT 10SM CLR 07/00 A2998 RMK AO2 SLP157 T00670000
KCXY 202056Z 29005KT 10SM CLR 10/01 A2996 RMK AO2 SLP150 T01000006 53009
KCXY 201956Z 27006KT 10SM CLR 11/01 A2994 RMK AO2 SLP144 T01060006
KCXY 201856Z 27006KT 10SM CLR 10/00 A2994 RMK AO2 SLP142 T01000000
KCXY 201756Z 27008KT 10SM CLR 09/00 A2993 RMK AO2 SLP141 T00940000 10094 21044 58008
KCXY 201656Z 27010KT 10SM CLR 09/M01 A2995 RMK AO2 SLP147 T00891006
KCXY 201556Z 27009KT 10SM CLR 08/M01 A2997 RMK AO2 SLP152 T00831011
KCXY 201456Z 34004KT 10SM CLR 05/M03 A2996 RMK AO2 SLP149 T00501028 51008
KCXY 201356Z 00000KT 10SM CLR M01/M04 A2996 RMK AO2 SLP149 T10111039
KCXY 201256Z 00000KT 10SM CLR M03/M06 A2994 RMK AO2 SLP144 T10331061
KCXY 201156Z 00000KT 10SM CLR M04/M07 A2994 RMK AO2 SLP142 T10441067 11028 21050 55002
KCXY 201056Z AUTO 00000KT 10SM CLR M04/M07 A2993 RMK AO2 SLP138 T10391067
KCXY 200956Z AUTO 00000KT 10SM CLR M05/M07 A2993 RMK AO2 SLP139 T10501072
KCXY 200856Z AUTO 00000KT 10SM CLR M04/M07 A2994 RMK AO2 SLP143 T10441072 58004
KCXY 200756Z AUTO 00000KT 10SM CLR M04/M06 A2995 RMK AO2 SLP146 T10391061
KCXY 200656Z AUTO 00000KT 10SM CLR M04/M07 A2996 RMK AO2 SLP148 T10391067
KCXY 200556Z AUTO 00000KT 10SM CLR M03/M07 A2995 RMK AO2 SLP147 T10331067 10044 21044 58015
KCXY 200456Z AUTO 00000KT 10SM CLR M03/M07 A2998 RMK AO2 SLP156 T10331067 400781094
KCXY 200356Z AUTO 22003KT 9SM CLR M03/M06 A3000 RMK AO2 SLP163 T10281061
KCXY 200256Z AUTO 00000KT 10SM CLR M02/M06 A3000 RMK AO2 SLP163 T10221056 58002
KCXY 200156Z 00000KT 10SM CLR M01/M06 A3000 RMK AO2 SLP164 T10061061
KCXY 200056Z 29004KT 10SM CLR 03/M07 A3000 RMK AO2 SLP165 T00331067
KCXY 192356Z 28005KT 10SM CLR 04/M07 A3000 RMK AO2 SLP165 T00441067 10078 20044 51004
KCXY 192256Z 29003KT 10SM CLR 06/M07 A3000 RMK AO2 SLP164 T00611072
KCXY 192156Z 24005KT 10SM CLR 06/M06 A3000 RMK AO2 SLP162 T00611061
KCXY 192056Z 25004KT 10SM CLR 07/M06 A2999 RMK AO2 SLP161 T00721061 56013
KCXY 191956Z 27007KT 10SM CLR 07/M07 A2999 RMK AO2 SLP162 T00671067
KCXY 191856Z 26010KT 10SM CLR 06/M07 A3001 RMK AO2 SLP168 T00561072
KCXY 191756Z 25009KT 10SM CLR 04/M07 A3003 RMK AO2 SLP174 T00441072 10044 21067 58023
KCXY 191656Z 26010KT 10SM CLR 04/M08 A3006 RMK AO2 SLP185 T00391083
KCXY 191556Z 26005KT 10SM CLR 03/M08 A3009 RMK AO2 SLP194 T00281083